sensor_id;sensor_type;location;lat;lon;timestamp;P1;durP1;ratioP1;P2;durP2;ratioP2
14782;SDS011;7483;50.498;12.138;2023-03-29T00:00:56;4.43;;;1.42;;
14782;SDS011;7483;50.498;12.138;2023-03-29T00:03:27;4.85;;;1.30;;
14782;SDS011;7483;50.498;12.138;2023-03-29T00:05:58;2.83;;;0.90;;
14782;SDS011;7483;50.498;12.138;2023-03-29T00:08:28;3.83;;;1.25;;
14782;SDS011;7483;50.498;12.138;2023-03-29T00:10:56;5.63;;;1.83;;
14782;SDS011;7483;50.498;12.138;2023-03-29T00:13:25;5.68;;;1.60;;
14782;SDS011;7483;50.498;12.138;2023-03-29T00:15:53;3.42;;;1.30;;
14782;SDS011;7483;50.498;12.138;2023-03-29T00:18:21;5.70;;;1.45;;
14782;SDS011;7483;50.498;12.138;2023-03-29T00:20:54;2.45;;;1.02;;
14782;SDS011;7483;50.498;12.138;2023-03-29T00:23:22;2.72;;;1.10;;
14782;SDS011;7483;50.498;12.138;2023-03-29T00:25:51;2.35;;;1.15;;
14782;SDS011;7483;50.498;12.138;2023-03-29T00:28:19;3.42;;;1.33;;
14782;SDS011;7483;50.498;12.138;2023-03-29T00:30:46;4.35;;;1.30;;
14782;SDS011;7483;50.498;12.138;2023-03-29T00:33:16;4.10;;;1.75;;
14782;SDS011;7483;50.498;12.138;2023-03-29T00:35:46;5.35;;;1.77;;
14782;SDS011;7483;50.498;12.138;2023-03-29T00:38:16;4.38;;;1.50;;
14782;SDS011;7483;50.498;12.138;2023-03-29T00:40:45;2.97;;;1.50;;
14782;SDS011;7483;50.498;12.138;2023-03-29T00:43:13;4.55;;;1.73;;
14782;SDS011;7483;50.498;12.138;2023-03-29T00:45:42;4.55;;;2.15;;
14782;SDS011;7483;50.498;12.138;2023-03-29T00:48:10;5.90;;;1.63;;
14782;SDS011;7483;50.498;12.138;2023-03-29T00:50:39;5.50;;;1.45;;
14782;SDS011;7483;50.498;12.138;2023-03-29T00:53:12;3.42;;;1.75;;
14782;SDS011;7483;50.498;12.138;2023-03-29T00:55:44;3.33;;;1.73;;
14782;SDS011;7483;50.498;12.138;2023-03-29T00:58:14;4.03;;;1.55;;
14782;SDS011;7483;50.498;12.138;2023-03-29T01:00:47;2.42;;;1.52;;
14782;SDS011;7483;50.498;12.138;2023-03-29T01:03:18;3.35;;;1.58;;
14782;SDS011;7483;50.498;12.138;2023-03-29T01:05:50;4.32;;;1.50;;
14782;SDS011;7483;50.498;12.138;2023-03-29T01:08:22;6.22;;;1.67;;
14782;SDS011;7483;50.498;12.138;2023-03-29T01:10:55;4.85;;;1.73;;
14782;SDS011;7483;50.498;12.138;2023-03-29T01:15:54;1.77;;;1.30;;
14782;SDS011;7483;50.498;12.138;2023-03-29T01:18:23;4.50;;;1.48;;
14782;SDS011;7483;50.498;12.138;2023-03-29T01:20:55;4.00;;;1.50;;
14782;SDS011;7483;50.498;12.138;2023-03-29T01:23:38;3.53;;;1.65;;
14782;SDS011;7483;50.498;12.138;2023-03-29T01:26:15;3.88;;;1.42;;
14782;SDS011;7483;50.498;12.138;2023-03-29T01:28:49;6.03;;;1.73;;
14782;SDS011;7483;50.498;12.138;2023-03-29T01:31:19;3.05;;;1.48;;
14782;SDS011;7483;50.498;12.138;2023-03-29T01:33:50;3.30;;;1.48;;
14782;SDS011;7483;50.498;12.138;2023-03-29T01:36:20;3.88;;;1.83;;
14782;SDS011;7483;50.498;12.138;2023-03-29T01:38:52;2.30;;;1.15;;
14782;SDS011;7483;50.498;12.138;2023-03-29T01:41:22;4.00;;;1.42;;
14782;SDS011;7483;50.498;12.138;2023-03-29T01:43:56;4.30;;;1.38;;
14782;SDS011;7483;50.498;12.138;2023-03-29T01:46:27;2.05;;;1.35;;
14782;SDS011;7483;50.498;12.138;2023-03-29T01:48:58;4.50;;;2.40;;
14782;SDS011;7483;50.498;12.138;2023-03-29T01:51:29;2.40;;;1.20;;
14782;SDS011;7483;50.498;12.138;2023-03-29T01:54:02;3.75;;;1.75;;
14782;SDS011;7483;50.498;12.138;2023-03-29T01:56:33;4.70;;;1.50;;
14782;SDS011;7483;50.498;12.138;2023-03-29T01:59:04;2.13;;;1.50;;
14782;SDS011;7483;50.498;12.138;2023-03-29T02:01:37;5.53;;;2.17;;
14782;SDS011;7483;50.498;12.138;2023-03-29T02:04:08;1.77;;;1.58;;
14782;SDS011;7483;50.498;12.138;2023-03-29T02:06:38;2.72;;;1.30;;
14782;SDS011;7483;50.498;12.138;2023-03-29T02:09:06;3.55;;;1.48;;
14782;SDS011;7483;50.498;12.138;2023-03-29T02:11:36;2.95;;;1.65;;
14782;SDS011;7483;50.498;12.138;2023-03-29T02:14:05;2.92;;;1.40;;
14782;SDS011;7483;50.498;12.138;2023-03-29T02:16:33;1.52;;;1.13;;
14782;SDS011;7483;50.498;12.138;2023-03-29T02:19:02;1.77;;;1.45;;
14782;SDS011;7483;50.498;12.138;2023-03-29T02:21:30;3.88;;;1.48;;
14782;SDS011;7483;50.498;12.138;2023-03-29T02:24:01;1.90;;;1.10;;
14782;SDS011;7483;50.498;12.138;2023-03-29T02:26:32;2.72;;;1.70;;
14782;SDS011;7483;50.498;12.138;2023-03-29T02:28:59;2.65;;;1.52;;
14782;SDS011;7483;50.498;12.138;2023-03-29T02:31:31;3.30;;;1.80;;
14782;SDS011;7483;50.498;12.138;2023-03-29T02:34:03;5.10;;;1.90;;
14782;SDS011;7483;50.498;12.138;2023-03-29T02:39:03;4.80;;;1.90;;
14782;SDS011;7483;50.498;12.138;2023-03-29T02:41:33;2.78;;;1.88;;
14782;SDS011;7483;50.498;12.138;2023-03-29T02:44:03;5.95;;;2.22;;
14782;SDS011;7483;50.498;12.138;2023-03-29T02:46:34;3.60;;;1.42;;
14782;SDS011;7483;50.498;12.138;2023-03-29T02:49:03;3.97;;;1.63;;
14782;SDS011;7483;50.498;12.138;2023-03-29T02:51:33;4.60;;;2.53;;
14782;SDS011;7483;50.498;12.138;2023-03-29T02:54:03;4.43;;;2.53;;
14782;SDS011;7483;50.498;12.138;2023-03-29T02:56:39;3.55;;;1.98;;
14782;SDS011;7483;50.498;12.138;2023-03-29T02:59:08;4.55;;;2.42;;
14782;SDS011;7483;50.498;12.138;2023-03-29T03:01:38;5.32;;;2.25;;
14782;SDS011;7483;50.498;12.138;2023-03-29T03:04:08;4.80;;;2.40;;
14782;SDS011;7483;50.498;12.138;2023-03-29T03:06:36;2.88;;;1.40;;
14782;SDS011;7483;50.498;12.138;2023-03-29T03:09:04;5.72;;;3.10;;
14782;SDS011;7483;50.498;12.138;2023-03-29T03:11:35;4.20;;;3.08;;
14782;SDS011;7483;50.498;12.138;2023-03-29T03:14:02;5.70;;;3.10;;
14782;SDS011;7483;50.498;12.138;2023-03-29T03:16:31;3.70;;;2.95;;
14782;SDS011;7483;50.498;12.138;2023-03-29T03:18:59;5.20;;;3.00;;
14782;SDS011;7483;50.498;12.138;2023-03-29T03:21:27;2.55;;;2.13;;
14782;SDS011;7483;50.498;12.138;2023-03-29T03:23:55;6.75;;;2.80;;
14782;SDS011;7483;50.498;12.138;2023-03-29T03:26:22;4.28;;;3.00;;
14782;SDS011;7483;50.498;12.138;2023-03-29T03:28:55;3.00;;;2.67;;
14782;SDS011;7483;50.498;12.138;2023-03-29T03:34:37;5.72;;;3.30;;
14782;SDS011;7483;50.498;12.138;2023-03-29T03:37:04;2.67;;;2.45;;
14782;SDS011;7483;50.498;12.138;2023-03-29T03:39:33;5.28;;;2.88;;
14782;SDS011;7483;50.498;12.138;2023-03-29T03:42:02;2.20;;;2.00;;
14782;SDS011;7483;50.498;12.138;2023-03-29T03:44:37;2.45;;;1.85;;
14782;SDS011;7483;50.498;12.138;2023-03-29T03:47:18;3.25;;;2.83;;
14782;SDS011;7483;50.498;12.138;2023-03-29T03:49:47;3.33;;;2.92;;
14782;SDS011;7483;50.498;12.138;2023-03-29T03:52:18;3.13;;;2.40;;
14782;SDS011;7483;50.498;12.138;2023-03-29T03:54:45;3.17;;;2.05;;
14782;SDS011;7483;50.498;12.138;2023-03-29T03:57:31;3.00;;;1.80;;
14782;SDS011;7483;50.498;12.138;2023-03-29T04:00:03;4.10;;;2.75;;
14782;SDS011;7483;50.498;12.138;2023-03-29T04:02:49;2.50;;;2.30;;
14782;SDS011;7483;50.498;12.138;2023-03-29T04:05:18;4.80;;;2.58;;
14782;SDS011;7483;50.498;12.138;2023-03-29T04:07:46;4.50;;;2.20;;
14782;SDS011;7483;50.498;12.138;2023-03-29T04:10:32;3.53;;;2.50;;
14782;SDS011;7483;50.498;12.138;2023-03-29T04:13:08;1.88;;;1.40;;
14782;SDS011;7483;50.498;12.138;2023-03-29T04:15:57;3.15;;;2.20;;
14782;SDS011;7483;50.498;12.138;2023-03-29T04:18:27;4.07;;;2.15;;
14782;SDS011;7483;50.498;12.138;2023-03-29T04:20:58;2.95;;;2.35;;
14782;SDS011;7483;50.498;12.138;2023-03-29T04:23:29;5.45;;;2.65;;
14782;SDS011;7483;50.498;12.138;2023-03-29T04:25:56;6.32;;;2.88;;
14782;SDS011;7483;50.498;12.138;2023-03-29T04:28:41;6.18;;;2.58;;
14782;SDS011;7483;50.498;12.138;2023-03-29T04:31:14;3.28;;;2.58;;
14782;SDS011;7483;50.498;12.138;2023-03-29T04:34:06;2.55;;;2.00;;
14782;SDS011;7483;50.498;12.138;2023-03-29T04:36:35;6.50;;;2.65;;
14782;SDS011;7483;50.498;12.138;2023-03-29T04:39:07;3.08;;;2.38;;
14782;SDS011;7483;50.498;12.138;2023-03-29T04:41:35;4.55;;;2.90;;
14782;SDS011;7483;50.498;12.138;2023-03-29T04:44:15;6.93;;;3.58;;
14782;SDS011;7483;50.498;12.138;2023-03-29T04:46:43;6.05;;;3.03;;
14782;SDS011;7483;50.498;12.138;2023-03-29T04:49:29;2.78;;;2.03;;
14782;SDS011;7483;50.498;12.138;2023-03-29T04:51:59;8.00;;;3.33;;
14782;SDS011;7483;50.498;12.138;2023-03-29T04:54:29;4.38;;;2.95;;
14782;SDS011;7483;50.498;12.138;2023-03-29T04:57:17;5.65;;;3.03;;
14782;SDS011;7483;50.498;12.138;2023-03-29T04:59:53;3.85;;;2.83;;
14782;SDS011;7483;50.498;12.138;2023-03-29T05:02:40;5.22;;;3.55;;
14782;SDS011;7483;50.498;12.138;2023-03-29T05:05:10;6.10;;;3.08;;
14782;SDS011;7483;50.498;12.138;2023-03-29T05:07:40;4.75;;;3.28;;
14782;SDS011;7483;50.498;12.138;2023-03-29T05:10:09;5.40;;;3.78;;
14782;SDS011;7483;50.498;12.138;2023-03-29T05:12:39;7.85;;;4.05;;
14782;SDS011;7483;50.498;12.138;2023-03-29T05:15:07;6.50;;;3.42;;
14782;SDS011;7483;50.498;12.138;2023-03-29T05:17:35;7.55;;;4.15;;
14782;SDS011;7483;50.498;12.138;2023-03-29T05:22:37;5.10;;;3.78;;
14782;SDS011;7483;50.498;12.138;2023-03-29T05:25:09;3.22;;;1.92;;
14782;SDS011;7483;50.498;12.138;2023-03-29T05:27:40;7.28;;;3.72;;
14782;SDS011;7483;50.498;12.138;2023-03-29T05:30:09;5.72;;;2.50;;
14782;SDS011;7483;50.498;12.138;2023-03-29T05:33:02;5.22;;;3.85;;
14782;SDS011;7483;50.498;12.138;2023-03-29T05:35:32;3.83;;;2.85;;
14782;SDS011;7483;50.498;12.138;2023-03-29T05:38:03;4.22;;;3.15;;
14782;SDS011;7483;50.498;12.138;2023-03-29T05:40:33;3.95;;;3.22;;
14782;SDS011;7483;50.498;12.138;2023-03-29T05:43:28;4.88;;;3.72;;
14782;SDS011;7483;50.498;12.138;2023-03-29T05:45:56;4.88;;;3.90;;
14782;SDS011;7483;50.498;12.138;2023-03-29T05:48:24;7.18;;;4.78;;
14782;SDS011;7483;50.498;12.138;2023-03-29T05:50:53;11.85;;;4.03;;
14782;SDS011;7483;50.498;12.138;2023-03-29T05:53:22;7.32;;;4.10;;
14782;SDS011;7483;50.498;12.138;2023-03-29T05:55:52;5.65;;;4.65;;
14782;SDS011;7483;50.498;12.138;2023-03-29T05:58:21;6.95;;;4.15;;
14782;SDS011;7483;50.498;12.138;2023-03-29T06:00:51;7.43;;;4.50;;
14782;SDS011;7483;50.498;12.138;2023-03-29T06:03:39;5.63;;;3.38;;
14782;SDS011;7483;50.498;12.138;2023-03-29T06:06:07;4.25;;;2.90;;
14782;SDS011;7483;50.498;12.138;2023-03-29T06:08:36;7.47;;;4.50;;
14782;SDS011;7483;50.498;12.138;2023-03-29T06:11:15;7.53;;;4.05;;
14782;SDS011;7483;50.498;12.138;2023-03-29T06:14:05;5.38;;;4.63;;
14782;SDS011;7483;50.498;12.138;2023-03-29T06:16:38;5.55;;;3.30;;
14782;SDS011;7483;50.498;12.138;2023-03-29T06:19:08;5.45;;;3.33;;
14782;SDS011;7483;50.498;12.138;2023-03-29T06:21:37;5.20;;;4.10;;
14782;SDS011;7483;50.498;12.138;2023-03-29T06:24:05;6.63;;;3.92;;
14782;SDS011;7483;50.498;12.138;2023-03-29T06:26:41;6.93;;;4.15;;
14782;SDS011;7483;50.498;12.138;2023-03-29T06:29:08;5.53;;;4.43;;
14782;SDS011;7483;50.498;12.138;2023-03-29T06:31:38;6.32;;;3.72;;
14782;SDS011;7483;50.498;12.138;2023-03-29T06:34:10;5.95;;;4.00;;
14782;SDS011;7483;50.498;12.138;2023-03-29T06:36:58;2.30;;;2.10;;
14782;SDS011;7483;50.498;12.138;2023-03-29T06:39:26;5.85;;;3.42;;
14782;SDS011;7483;50.498;12.138;2023-03-29T06:42:21;5.45;;;4.20;;
14782;SDS011;7483;50.498;12.138;2023-03-29T06:45:14;6.80;;;4.45;;
14782;SDS011;7483;50.498;12.138;2023-03-29T06:47:46;6.88;;;3.80;;
14782;SDS011;7483;50.498;12.138;2023-03-29T06:50:13;8.32;;;4.32;;
14782;SDS011;7483;50.498;12.138;2023-03-29T06:52:57;5.85;;;4.57;;
14782;SDS011;7483;50.498;12.138;2023-03-29T06:55:24;5.05;;;3.33;;
14782;SDS011;7483;50.498;12.138;2023-03-29T06:57:55;5.82;;;3.63;;
14782;SDS011;7483;50.498;12.138;2023-03-29T07:00:25;7.18;;;4.70;;
14782;SDS011;7483;50.498;12.138;2023-03-29T07:03:07;6.53;;;3.58;;
14782;SDS011;7483;50.498;12.138;2023-03-29T07:05:38;5.55;;;5.00;;
14782;SDS011;7483;50.498;12.138;2023-03-29T07:08:11;6.35;;;3.70;;
14782;SDS011;7483;50.498;12.138;2023-03-29T07:10:50;4.38;;;3.25;;
14782;SDS011;7483;50.498;12.138;2023-03-29T07:13:39;5.22;;;2.80;;
14782;SDS011;7483;50.498;12.138;2023-03-29T07:16:07;8.57;;;4.60;;
14782;SDS011;7483;50.498;12.138;2023-03-29T07:18:46;8.25;;;5.20;;
14782;SDS011;7483;50.498;12.138;2023-03-29T07:21:34;7.55;;;3.97;;
14782;SDS011;7483;50.498;12.138;2023-03-29T07:24:03;5.88;;;4.60;;
14782;SDS011;7483;50.498;12.138;2023-03-29T07:26:34;7.25;;;4.85;;
14782;SDS011;7483;50.498;12.138;2023-03-29T07:29:03;7.32;;;5.15;;
14782;SDS011;7483;50.498;12.138;2023-03-29T07:31:31;5.95;;;4.45;;
14782;SDS011;7483;50.498;12.138;2023-03-29T07:34:20;7.55;;;2.92;;
14782;SDS011;7483;50.498;12.138;2023-03-29T07:36:49;4.82;;;3.10;;
14782;SDS011;7483;50.498;12.138;2023-03-29T07:39:17;4.10;;;3.00;;
14782;SDS011;7483;50.498;12.138;2023-03-29T07:42:04;4.40;;;3.65;;
14782;SDS011;7483;50.498;12.138;2023-03-29T07:44:34;6.03;;;4.28;;
14782;SDS011;7483;50.498;12.138;2023-03-29T07:47:02;6.10;;;3.38;;
14782;SDS011;7483;50.498;12.138;2023-03-29T07:49:31;6.75;;;4.05;;
14782;SDS011;7483;50.498;12.138;2023-03-29T07:51:58;6.38;;;4.47;;
14782;SDS011;7483;50.498;12.138;2023-03-29T07:54:26;5.43;;;3.97;;
14782;SDS011;7483;50.498;12.138;2023-03-29T07:57:16;8.32;;;5.03;;
14782;SDS011;7483;50.498;12.138;2023-03-29T07:59:52;8.57;;;4.00;;
14782;SDS011;7483;50.498;12.138;2023-03-29T08:02:25;7.78;;;4.53;;
14782;SDS011;7483;50.498;12.138;2023-03-29T08:04:59;3.03;;;2.47;;
14782;SDS011;7483;50.498;12.138;2023-03-29T08:07:46;6.93;;;4.80;;
14782;SDS011;7483;50.498;12.138;2023-03-29T08:10:35;4.65;;;2.25;;
14782;SDS011;7483;50.498;12.138;2023-03-29T08:13:11;2.90;;;2.22;;
14782;SDS011;7483;50.498;12.138;2023-03-29T08:16:07;6.35;;;3.80;;
14782;SDS011;7483;50.498;12.138;2023-03-29T08:18:41;7.85;;;5.45;;
14782;SDS011;7483;50.498;12.138;2023-03-29T08:21:08;5.03;;;3.35;;
14782;SDS011;7483;50.498;12.138;2023-03-29T08:23:38;6.53;;;4.05;;
14782;SDS011;7483;50.498;12.138;2023-03-29T08:26:16;8.80;;;4.38;;
14782;SDS011;7483;50.498;12.138;2023-03-29T08:28:45;5.93;;;3.25;;
14782;SDS011;7483;50.498;12.138;2023-03-29T08:31:16;4.25;;;2.45;;
14782;SDS011;7483;50.498;12.138;2023-03-29T08:33:44;5.78;;;2.80;;
14782;SDS011;7483;50.498;12.138;2023-03-29T08:36:33;6.07;;;3.40;;
14782;SDS011;7483;50.498;12.138;2023-03-29T08:39:08;3.47;;;2.20;;
14782;SDS011;7483;50.498;12.138;2023-03-29T08:41:40;8.70;;;4.45;;
14782;SDS011;7483;50.498;12.138;2023-03-29T08:44:24;6.82;;;3.20;;
14782;SDS011;7483;50.498;12.138;2023-03-29T08:47:13;4.10;;;3.20;;
14782;SDS011;7483;50.498;12.138;2023-03-29T08:49:46;6.63;;;4.20;;
14782;SDS011;7483;50.498;12.138;2023-03-29T08:52:17;7.65;;;3.95;;
14782;SDS011;7483;50.498;12.138;2023-03-29T08:54:48;5.30;;;2.83;;
14782;SDS011;7483;50.498;12.138;2023-03-29T08:57:27;9.07;;;4.40;;
14782;SDS011;7483;50.498;12.138;2023-03-29T09:00:03;4.22;;;2.60;;
14782;SDS011;7483;50.498;12.138;2023-03-29T09:02:37;3.78;;;3.13;;
14782;SDS011;7483;50.498;12.138;2023-03-29T09:05:08;3.28;;;2.28;;
14782;SDS011;7483;50.498;12.138;2023-03-29T09:08:13;3.55;;;1.95;;
14782;SDS011;7483;50.498;12.138;2023-03-29T09:10:44;6.97;;;4.25;;
14782;SDS011;7483;50.498;12.138;2023-03-29T09:13:19;5.55;;;3.05;;
14782;SDS011;7483;50.498;12.138;2023-03-29T09:15:57;5.60;;;3.10;;
14782;SDS011;7483;50.498;12.138;2023-03-29T09:18:41;5.10;;;3.80;;
14782;SDS011;7483;50.498;12.138;2023-03-29T09:21:16;4.85;;;2.72;;
14782;SDS011;7483;50.498;12.138;2023-03-29T09:23:56;3.40;;;2.20;;
14782;SDS011;7483;50.498;12.138;2023-03-29T09:26:43;3.50;;;1.60;;
14782;SDS011;7483;50.498;12.138;2023-03-29T09:29:30;6.05;;;3.47;;
14782;SDS011;7483;50.498;12.138;2023-03-29T09:32:11;5.53;;;2.92;;
14782;SDS011;7483;50.498;12.138;2023-03-29T09:34:46;6.57;;;3.10;;
14782;SDS011;7483;50.498;12.138;2023-03-29T09:37:20;3.67;;;2.78;;
14782;SDS011;7483;50.498;12.138;2023-03-29T09:39:50;4.28;;;2.25;;
14782;SDS011;7483;50.498;12.138;2023-03-29T09:42:21;3.38;;;2.63;;
14782;SDS011;7483;50.498;12.138;2023-03-29T09:44:51;3.78;;;2.08;;
14782;SDS011;7483;50.498;12.138;2023-03-29T09:47:28;4.35;;;2.80;;
14782;SDS011;7483;50.498;12.138;2023-03-29T09:50:08;7.93;;;4.53;;
14782;SDS011;7483;50.498;12.138;2023-03-29T09:52:52;6.20;;;3.55;;
14782;SDS011;7483;50.498;12.138;2023-03-29T09:55:24;2.47;;;2.13;;
14782;SDS011;7483;50.498;12.138;2023-03-29T09:58:14;3.53;;;3.03;;
14782;SDS011;7483;50.498;12.138;2023-03-29T10:00:47;4.85;;;3.00;;
14782;SDS011;7483;50.498;12.138;2023-03-29T10:03:17;4.78;;;2.35;;
14782;SDS011;7483;50.498;12.138;2023-03-29T10:05:52;3.08;;;2.20;;
14782;SDS011;7483;50.498;12.138;2023-03-29T10:08:24;6.20;;;3.00;;
14782;SDS011;7483;50.498;12.138;2023-03-29T10:10:56;2.47;;;2.03;;
14782;SDS011;7483;50.498;12.138;2023-03-29T10:13:26;3.10;;;2.70;;
14782;SDS011;7483;50.498;12.138;2023-03-29T10:15:56;4.50;;;4.07;;
14782;SDS011;7483;50.498;12.138;2023-03-29T10:18:28;4.03;;;2.60;;
14782;SDS011;7483;50.498;12.138;2023-03-29T10:20:59;3.95;;;2.33;;
14782;SDS011;7483;50.498;12.138;2023-03-29T10:23:31;4.43;;;3.20;;
14782;SDS011;7483;50.498;12.138;2023-03-29T10:26:00;5.13;;;3.08;;
14782;SDS011;7483;50.498;12.138;2023-03-29T10:28:30;4.07;;;3.03;;
14782;SDS011;7483;50.498;12.138;2023-03-29T10:30:59;7.90;;;3.15;;
14782;SDS011;7483;50.498;12.138;2023-03-29T10:33:30;5.45;;;3.20;;
14782;SDS011;7483;50.498;12.138;2023-03-29T10:36:02;4.07;;;2.90;;
14782;SDS011;7483;50.498;12.138;2023-03-29T10:38:31;2.63;;;1.80;;
14782;SDS011;7483;50.498;12.138;2023-03-29T10:41:02;5.68;;;2.50;;
14782;SDS011;7483;50.498;12.138;2023-03-29T10:43:35;3.72;;;2.50;;
14782;SDS011;7483;50.498;12.138;2023-03-29T10:46:05;3.33;;;1.60;;
14782;SDS011;7483;50.498;12.138;2023-03-29T10:48:34;3.80;;;2.20;;
14782;SDS011;7483;50.498;12.138;2023-03-29T10:51:03;2.95;;;2.40;;
14782;SDS011;7483;50.498;12.138;2023-03-29T10:53:33;5.53;;;2.97;;
14782;SDS011;7483;50.498;12.138;2023-03-29T10:56:06;2.60;;;1.83;;
14782;SDS011;7483;50.498;12.138;2023-03-29T10:58:50;4.93;;;2.72;;
14782;SDS011;7483;50.498;12.138;2023-03-29T11:01:28;2.85;;;2.63;;
14782;SDS011;7483;50.498;12.138;2023-03-29T11:04:04;3.30;;;2.42;;
14782;SDS011;7483;50.498;12.138;2023-03-29T11:06:39;3.35;;;2.53;;
14782;SDS011;7483;50.498;12.138;2023-03-29T11:09:12;3.20;;;1.70;;
14782;SDS011;7483;50.498;12.138;2023-03-29T11:11:56;4.60;;;2.55;;
14782;SDS011;7483;50.498;12.138;2023-03-29T11:14:44;2.17;;;1.63;;
14782;SDS011;7483;50.498;12.138;2023-03-29T11:17:21;3.22;;;2.40;;
14782;SDS011;7483;50.498;12.138;2023-03-29T11:20:00;5.53;;;3.97;;
14782;SDS011;7483;50.498;12.138;2023-03-29T11:22:42;5.35;;;3.13;;
14782;SDS011;7483;50.498;12.138;2023-03-29T11:25:17;4.30;;;2.33;;
14782;SDS011;7483;50.498;12.138;2023-03-29T11:27:57;4.68;;;2.13;;
14782;SDS011;7483;50.498;12.138;2023-03-29T11:30:28;3.50;;;1.95;;
14782;SDS011;7483;50.498;12.138;2023-03-29T11:33:01;3.42;;;2.45;;
14782;SDS011;7483;50.498;12.138;2023-03-29T11:35:38;8.63;;;2.70;;
14782;SDS011;7483;50.498;12.138;2023-03-29T11:38:12;3.38;;;2.63;;
14782;SDS011;7483;50.498;12.138;2023-03-29T11:40:56;6.40;;;3.00;;
14782;SDS011;7483;50.498;12.138;2023-03-29T11:43:28;7.88;;;3.40;;
14782;SDS011;7483;50.498;12.138;2023-03-29T11:45:59;5.30;;;2.85;;
14782;SDS011;7483;50.498;12.138;2023-03-29T11:48:30;2.38;;;2.08;;
14782;SDS011;7483;50.498;12.138;2023-03-29T11:51:01;3.10;;;1.92;;
14782;SDS011;7483;50.498;12.138;2023-03-29T11:53:34;3.22;;;1.65;;
14782;SDS011;7483;50.498;12.138;2023-03-29T11:56:06;4.95;;;2.25;;
14782;SDS011;7483;50.498;12.138;2023-03-29T11:58:36;4.30;;;2.45;;
14782;SDS011;7483;50.498;12.138;2023-03-29T12:01:08;3.03;;;2.35;;
14782;SDS011;7483;50.498;12.138;2023-03-29T12:03:38;7.97;;;4.10;;
14782;SDS011;7483;50.498;12.138;2023-03-29T12:06:13;5.57;;;3.35;;
14782;SDS011;7483;50.498;12.138;2023-03-29T12:08:46;5.10;;;2.65;;
14782;SDS011;7483;50.498;12.138;2023-03-29T12:11:18;4.63;;;3.20;;
14782;SDS011;7483;50.498;12.138;2023-03-29T12:13:49;5.25;;;2.92;;
14782;SDS011;7483;50.498;12.138;2023-03-29T12:16:20;3.08;;;1.85;;
14782;SDS011;7483;50.498;12.138;2023-03-29T12:18:52;5.80;;;2.53;;
14782;SDS011;7483;50.498;12.138;2023-03-29T12:21:21;2.33;;;2.13;;
14782;SDS011;7483;50.498;12.138;2023-03-29T12:23:53;3.95;;;2.08;;
14782;SDS011;7483;50.498;12.138;2023-03-29T12:26:28;2.67;;;1.75;;
14782;SDS011;7483;50.498;12.138;2023-03-29T12:29:04;3.45;;;2.30;;
14782;SDS011;7483;50.498;12.138;2023-03-29T12:31:40;3.05;;;2.00;;
14782;SDS011;7483;50.498;12.138;2023-03-29T12:34:18;2.05;;;1.52;;
14782;SDS011;7483;50.498;12.138;2023-03-29T12:37:01;2.45;;;1.60;;
14782;SDS011;7483;50.498;12.138;2023-03-29T12:40:00;2.63;;;1.88;;
14782;SDS011;7483;50.498;12.138;2023-03-29T12:42:50;2.38;;;2.13;;
14782;SDS011;7483;50.498;12.138;2023-03-29T12:45:37;3.72;;;2.00;;
14782;SDS011;7483;50.498;12.138;2023-03-29T12:48:06;3.72;;;1.92;;
14782;SDS011;7483;50.498;12.138;2023-03-29T12:50:42;4.15;;;2.38;;
14782;SDS011;7483;50.498;12.138;2023-03-29T12:53:14;2.72;;;1.95;;
14782;SDS011;7483;50.498;12.138;2023-03-29T12:55:53;3.10;;;2.00;;
14782;SDS011;7483;50.498;12.138;2023-03-29T12:58:27;2.65;;;1.88;;
14782;SDS011;7483;50.498;12.138;2023-03-29T13:01:08;3.17;;;1.98;;
14782;SDS011;7483;50.498;12.138;2023-03-29T13:03:44;3.15;;;1.95;;
14782;SDS011;7483;50.498;12.138;2023-03-29T13:06:25;1.83;;;1.40;;
14782;SDS011;7483;50.498;12.138;2023-03-29T13:08:59;2.67;;;1.40;;
14782;SDS011;7483;50.498;12.138;2023-03-29T13:11:32;2.25;;;1.20;;
14782;SDS011;7483;50.498;12.138;2023-03-29T13:14:01;1.85;;;1.52;;
14782;SDS011;7483;50.498;12.138;2023-03-29T13:16:35;2.22;;;1.60;;
14782;SDS011;7483;50.498;12.138;2023-03-29T13:19:13;2.35;;;1.60;;
14782;SDS011;7483;50.498;12.138;2023-03-29T13:21:49;2.97;;;1.63;;
14782;SDS011;7483;50.498;12.138;2023-03-29T13:24:30;4.93;;;1.75;;
14782;SDS011;7483;50.498;12.138;2023-03-29T13:27:06;1.70;;;1.13;;
14782;SDS011;7483;50.498;12.138;2023-03-29T13:29:39;3.33;;;1.52;;
14782;SDS011;7483;50.498;12.138;2023-03-29T13:35:10;5.30;;;1.67;;
14782;SDS011;7483;50.498;12.138;2023-03-29T13:37:46;2.30;;;1.90;;
14782;SDS011;7483;50.498;12.138;2023-03-29T13:40:23;2.25;;;1.70;;
14782;SDS011;7483;50.498;12.138;2023-03-29T13:42:59;6.68;;;2.25;;
14782;SDS011;7483;50.498;12.138;2023-03-29T13:45:29;3.03;;;1.70;;
14782;SDS011;7483;50.498;12.138;2023-03-29T13:48:02;1.33;;;1.00;;
14782;SDS011;7483;50.498;12.138;2023-03-29T13:50:35;2.85;;;1.60;;
14782;SDS011;7483;50.498;12.138;2023-03-29T13:53:05;3.42;;;1.70;;
14782;SDS011;7483;50.498;12.138;2023-03-29T13:55:39;2.80;;;1.48;;
14782;SDS011;7483;50.498;12.138;2023-03-29T13:58:12;4.05;;;2.13;;
14782;SDS011;7483;50.498;12.138;2023-03-29T14:00:43;2.97;;;1.70;;
14782;SDS011;7483;50.498;12.138;2023-03-29T14:03:14;3.45;;;1.55;;
14782;SDS011;7483;50.498;12.138;2023-03-29T14:05:43;5.18;;;2.22;;
14782;SDS011;7483;50.498;12.138;2023-03-29T14:08:15;2.63;;;1.73;;
14782;SDS011;7483;50.498;12.138;2023-03-29T14:10:48;4.13;;;1.83;;
14782;SDS011;7483;50.498;12.138;2023-03-29T14:13:18;3.03;;;1.40;;
14782;SDS011;7483;50.498;12.138;2023-03-29T14:15:48;2.28;;;1.77;;
14782;SDS011;7483;50.498;12.138;2023-03-29T14:18:18;2.65;;;1.73;;
14782;SDS011;7483;50.498;12.138;2023-03-29T14:20:47;2.70;;;1.92;;
14782;SDS011;7483;50.498;12.138;2023-03-29T14:23:19;3.40;;;1.50;;
14782;SDS011;7483;50.498;12.138;2023-03-29T14:25:48;2.20;;;1.55;;
14782;SDS011;7483;50.498;12.138;2023-03-29T14:28:19;1.92;;;1.17;;
14782;SDS011;7483;50.498;12.138;2023-03-29T14:30:47;3.00;;;1.20;;
14782;SDS011;7483;50.498;12.138;2023-03-29T14:33:24;3.70;;;1.20;;
14782;SDS011;7483;50.498;12.138;2023-03-29T14:35:53;2.08;;;1.48;;
14782;SDS011;7483;50.498;12.138;2023-03-29T14:38:22;5.30;;;2.00;;
14782;SDS011;7483;50.498;12.138;2023-03-29T14:40:50;2.63;;;1.77;;
14782;SDS011;7483;50.498;12.138;2023-03-29T14:43:19;3.55;;;1.25;;
14782;SDS011;7483;50.498;12.138;2023-03-29T14:45:49;2.10;;;1.35;;
14782;SDS011;7483;50.498;12.138;2023-03-29T14:48:16;2.00;;;1.52;;
14782;SDS011;7483;50.498;12.138;2023-03-29T14:50:44;3.05;;;1.17;;
14782;SDS011;7483;50.498;12.138;2023-03-29T14:53:14;2.25;;;1.42;;
14782;SDS011;7483;50.498;12.138;2023-03-29T14:55:44;2.72;;;1.67;;
14782;SDS011;7483;50.498;12.138;2023-03-29T14:58:15;2.10;;;1.45;;
14782;SDS011;7483;50.498;12.138;2023-03-29T15:00:48;3.85;;;1.45;;
14782;SDS011;7483;50.498;12.138;2023-03-29T15:03:17;6.07;;;1.80;;
14782;SDS011;7483;50.498;12.138;2023-03-29T15:05:49;2.25;;;1.58;;
14782;SDS011;7483;50.498;12.138;2023-03-29T15:08:28;1.65;;;1.10;;
14782;SDS011;7483;50.498;12.138;2023-03-29T15:10:56;4.93;;;2.28;;
14782;SDS011;7483;50.498;12.138;2023-03-29T15:13:25;3.15;;;1.70;;
14782;SDS011;7483;50.498;12.138;2023-03-29T15:15:54;1.65;;;1.00;;
14782;SDS011;7483;50.498;12.138;2023-03-29T15:18:26;3.47;;;1.45;;
14782;SDS011;7483;50.498;12.138;2023-03-29T15:20:55;2.45;;;1.63;;
14782;SDS011;7483;50.498;12.138;2023-03-29T15:23:23;2.30;;;1.70;;
14782;SDS011;7483;50.498;12.138;2023-03-29T15:25:53;1.60;;;1.20;;
14782;SDS011;7483;50.498;12.138;2023-03-29T15:28:27;3.35;;;1.50;;
14782;SDS011;7483;50.498;12.138;2023-03-29T15:30:57;2.97;;;1.80;;
14782;SDS011;7483;50.498;12.138;2023-03-29T15:33:34;2.00;;;1.58;;
14782;SDS011;7483;50.498;12.138;2023-03-29T15:36:03;3.25;;;1.95;;
14782;SDS011;7483;50.498;12.138;2023-03-29T15:38:32;3.22;;;1.67;;